Terminal Aerodrome Forecast
Issued by NWS

Home | Current Version | Previous Version | Text Only | Print | Product List | Glossary On
Versions: 1 2 3 4 5 6 7 8 9 10 11 12 13 14 15 16 17 18 19 20
000
FTUS41 KCAR 250553
TAFBHB
TAF
KBHB 250553Z 2506/2606 31010KT P6SM SCT025 OVC100
     FM251300 27010G20KT P6SM BKN050
     FM251700 31015G25KT P6SM SKC
     FM252300 30010G18KT P6SM SKC
     FM260200 29009KT P6SM SKC
      AMD LTD TO CLD VIS AND WIND=

USA.gov is the U.S. government's official web portal to all federal, state and local government web resources and services.